Main page
METAR-TAF:

METAR-TAF

Airports :

Mbanza Congo Airport

M'banza-Kongo, Angola

latitude: 6-16-15S, longitude: 14-14-50E, elevation: 567 m

METAR: missing

Time: 21:54 (20:54 UTC)

Forecast

The report was made 34 hours and 29 minutes ago, at 10:25 UTC
Forecast valid from 24 at 12 UTC to 24 at 24 UTC
Wind kt from the North
Visibility: 9000 m
Broken clouds at a height of 1600 ft
Few clouds at a height of 1800 ft, Cumulonimbus.
drizzle
Becoming
from 24 at 18 UTC to 24 at 20 UTC
Wind 12 kt from the West/Southwest
Visibility: 7000 m
Few clouds at a height of 1300 ft
Few clouds at a height of 1600 ft, Cumulonimbus.
thunderstorm, light rain

TAF: FNBC 241025Z 2412/2424 00000KT 9000 DZ BKN016 FEW018CB BECMG 2418/2420 25012KT 7000 TS -RA FEW013 FEW016CB

Weather observations and forecasts of more than 4000 airports (METAR and TAF reports).

The available stations are represented by yellow and red dots on the map.

Hover mouse over dot to see the name of the station.

Then click to see weather observations and forecasts.

To change the map : click on the green buttons with a black cross to zoom in, on the green button with a dash to zoom out, or on the green arrows for adjacent maps.


METAR-TAF: